Ladora, Iowa
Current Conditions -  °F | °C
As of 6:52 PM on Tuesday 25 Nov 2014 (Local Time) from KCID Reporting Station
Clear Clear  
Wind Chill: 19°   Ceiling: Unl
Heat Index: 19°   Visibility: 10mi
Dew Point: 16°   Wind: 3mph
Humidity: 88%   Direction: 130°SE
Pressure: 30.1"   Gusts: NA
Location:  41.75°N, 92.18°W
Report Text: KCID 260052Z 13003KT 10SM CLR M07/M09 A3010 RMK AO2 SLP207 T10721089
Loading
Personal Weather Stations






























Interactive Weather Map New forecast layout! Learn more

10-Day Weather Forecast

Advertisements
Track Severe Weather on mobile